Time;durP1;ratioP1;P1;durP2;ratioP2;P2;SDS_P1;SDS_P2;PMS_P1;PMS_P2;Temp;Humidity;BMP_temperature;BMP_pressure;BME280_temperature;BME280_humidity;BME280_pressure;Samples;Min_cycle;Max_cycle;Signal;HPM_P1;HPM_P2
2022/07/12 00:01:42;;;;;;;7.20;6.28;;;;;;;17.16;62.32;99599.91;2618624;54;20042;-65
2022/07/12 00:04:14;;;;;;;8.32;6.90;;;;;;;17.12;62.70;99604.88;2618985;54;20022;-67
2022/07/12 00:06:44;;;;;;;7.18;6.30;;;;;;;17.05;62.82;99602.22;2618901;54;20055;-66
2022/07/12 00:09:14;;;;;;;7.70;6.90;;;;;;;17.03;63.02;99596.31;2618396;54;20049;-65
2022/07/12 00:11:43;;;;;;;7.68;6.97;;;;;;;16.94;62.89;99596.75;2619365;39;20410;-65
2022/07/12 00:14:13;;;;;;;7.63;6.75;;;;;;;16.88;63.15;99606.44;2619211;54;20030;-67
2022/07/12 00:16:43;;;;;;;7.57;6.85;;;;;;;16.81;63.38;99601.13;2618932;54;20030;-66
2022/07/12 00:19:15;;;;;;;8.55;7.18;;;;;;;16.74;63.74;99602.22;2619603;39;20411;-72
2022/07/12 00:21:45;;;;;;;7.18;6.47;;;;;;;16.65;63.92;99598.91;2618611;54;20042;-65
2022/07/12 00:24:14;;;;;;;8.07;6.55;;;;;;;16.60;64.21;99598.75;2619609;54;20046;-66
2022/07/12 00:26:44;;;;;;;7.82;6.60;;;;;;;16.66;64.36;99603.25;2619542;54;20035;-67
2022/07/12 00:29:13;;;;;;;7.82;7.03;;;;;;;16.73;63.95;99601.38;2619270;54;20033;-67
2022/07/12 00:31:43;;;;;;;7.50;6.80;;;;;;;16.64;63.78;99599.97;2619409;54;20045;-65
2022/07/12 00:34:15;;;;;;;8.02;7.20;;;;;;;16.50;64.19;99593.88;2619373;54;20033;-66
2022/07/12 00:36:45;;;;;;;7.53;6.68;;;;;;;16.50;64.52;99596.53;2619524;54;20041;-66
2022/07/12 00:39:14;;;;;;;7.22;6.55;;;;;;;16.47;64.39;99594.28;2619047;54;20038;-67
2022/07/12 00:41:45;;;;;;;7.40;6.68;;;;;;;16.43;64.48;99594.94;2619316;54;20030;-66
2022/07/12 00:44:14;;;;;;;8.82;6.88;;;;;;;16.47;64.78;99602.28;2619306;54;20553;-66
2022/07/12 00:46:45;;;;;;;8.02;6.63;;;;;;;16.47;64.39;99604.97;2619445;54;20035;-66
2022/07/12 00:49:17;;;;;;;7.32;6.50;;;;;;;16.46;64.79;99597.19;2617790;54;20130;-65
2022/07/12 00:51:47;;;;;;;7.68;6.95;;;;;;;16.23;65.03;99593.13;2618560;54;20039;-66
2022/07/12 00:54:18;;;;;;;8.23;7.38;;;;;;;16.19;65.18;99593.78;2618475;47;20023;-66
2022/07/12 00:56:48;;;;;;;8.15;6.95;;;;;;;16.22;65.33;99596.03;2618857;54;20061;-67
2022/07/12 00:59:18;;;;;;;9.98;7.57;;;;;;;16.22;65.35;99588.84;2619423;54;20026;-66
2022/07/12 01:01:48;;;;;;;9.57;7.00;;;;;;;16.17;65.27;99591.31;2618432;54;20038;-64
2022/07/12 01:04:20;;;;;;;6.85;6.22;;;;;;;16.18;65.60;99592.94;2618370;47;20039;-66
2022/07/12 01:06:50;;;;;;;8.07;7.28;;;;;;;16.12;66.08;99593.78;2618282;47;20030;-66
2022/07/12 01:09:20;;;;;;;7.95;6.70;;;;;;;16.21;65.61;99594.41;2618692;54;20035;-67
2022/07/12 01:11:50;;;;;;;8.25;6.63;;;;;;;16.20;65.70;99596.22;2618820;39;20459;-67
2022/07/12 01:14:19;;;;;;;7.75;6.95;;;;;;;16.16;65.52;99596.84;2618748;54;20042;-65
2022/07/12 01:16:49;;;;;;;6.90;6.28;;;;;;;16.16;65.78;99589.66;2619125;54;20035;-66
2022/07/12 01:19:23;;;;;;;7.75;7.05;;;;;;;16.21;65.52;99589.88;2618647;54;20053;-66
2022/07/12 01:21:55;;;;;;;8.20;6.95;;;;;;;16.13;65.68;99590.09;2618881;54;20526;-66
2022/07/12 01:24:27;;;;;;;8.63;7.03;;;;;;;16.17;65.68;99594.00;2619407;39;20407;-64
2022/07/12 01:27:00;;;;;;;8.00;7.20;;;;;;;16.13;65.48;99594.63;2619139;54;20045;-66
2022/07/12 01:29:30;;;;;;;7.90;7.10;;;;;;;16.01;65.75;99597.91;2618633;54;20074;-64
2022/07/12 01:32:24;;;;;;;8.05;7.18;;;;;;;16.03;65.78;99595.84;2618818;54;20031;-66
2022/07/12 01:34:55;;;;;;;8.60;7.57;;;;;;;15.89;65.93;99599.59;2618813;54;20066;-64
2022/07/12 01:37:26;;;;;;;8.18;7.28;;;;;;;15.81;66.56;99595.28;2618159;54;20558;-65
2022/07/12 01:39:59;;;;;;;9.05;7.38;;;;;;;15.81;66.44;99597.94;2619452;54;20546;-66
2022/07/12 01:42:31;;;;;;;10.10;7.50;;;;;;;15.87;66.47;99600.81;2619406;54;20138;-65
2022/07/12 01:45:01;;;;;;;7.45;6.50;;;;;;;15.80;66.36;99608.84;2618732;47;20561;-66
2022/07/12 01:47:33;;;;;;;7.75;6.78;;;;;;;15.84;66.43;99597.53;2620148;54;20034;-64
2022/07/12 01:50:04;;;;;;;8.10;7.30;;;;;;;15.80;66.26;99609.66;2621386;54;20038;-65
2022/07/12 01:52:34;;;;;;;10.25;7.43;;;;;;;15.79;66.33;99604.50;2622654;54;20565;-65
2022/07/12 01:55:07;;;;;;;7.53;6.82;;;;;;;15.78;66.80;99606.34;2620524;47;20041;-65
2022/07/12 01:57:37;;;;;;;7.70;6.97;;;;;;;15.71;66.84;99608.19;2620805;54;20594;-65
2022/07/12 02:00:15;;;;;;;7.13;6.43;;;;;;;15.65;66.75;99609.03;2621732;39;20458;-66
2022/07/12 02:02:47;;;;;;;7.35;6.60;;;;;;;15.63;67.06;99610.22;2620171;54;20026;-67
2022/07/12 02:05:18;;;;;;;7.85;6.93;;;;;;;15.63;66.46;99607.56;2620610;54;20033;-65
2022/07/12 02:07:49;;;;;;;7.78;7.07;;;;;;;15.46;66.96;99609.81;2621895;54;20030;-66
2022/07/12 02:10:21;;;;;;;8.43;7.50;;;;;;;15.43;67.42;99607.56;2621620;54;20030;-67
2022/07/12 02:12:51;;;;;;;8.27;7.47;;;;;;;15.38;67.35;99612.69;2621297;54;20033;-66
2022/07/12 02:15:23;;;;;;;12.55;9.35;;;;;;;15.38;67.80;99605.50;2623176;54;20023;-67
2022/07/12 02:17:53;;;;;;;22.77;17.50;;;;;;;15.44;67.47;99602.03;2621244;54;20542;-66
2022/07/12 02:20:22;;;;;;;16.58;11.77;;;;;;;15.38;67.52;99608.16;2620019;54;20294;-66
2022/07/12 02:22:52;;;;;;;9.20;8.30;;;;;;;15.39;67.68;99614.31;2620344;39;20636;-66
2022/07/12 02:25:25;;;;;;;8.27;7.43;;;;;;;15.34;67.57;99607.75;2619917;54;20031;-66
2022/07/12 02:27:55;;;;;;;7.20;6.47;;;;;;;15.35;67.71;99616.59;2620813;54;20553;-66
2022/07/12 02:30:24;;;;;;;7.10;6.40;;;;;;;15.43;67.45;99616.41;2619991;54;20050;-66
2022/07/12 02:32:54;;;;;;;7.57;6.07;;;;;;;15.47;67.42;99612.28;2618809;54;20077;-66
2022/07/12 02:35:24;;;;;;;9.02;7.32;;;;;;;15.48;66.98;99616.59;2618308;54;20033;-66
2022/07/12 02:37:54;;;;;;;9.05;7.18;;;;;;;15.50;67.23;99613.72;2619465;39;20422;-64
2022/07/12 02:43:08;;;;;;;9.05;7.35;;;;;;;15.16;67.63;99604.88;2619054;54;20030;-66
2022/07/12 02:45:37;;;;;;;8.05;7.28;;;;;;;15.02;68.38;99601.38;2619141;54;20031;-65
2022/07/12 02:48:07;;;;;;;7.90;7.10;;;;;;;14.97;68.42;99603.00;2618798;54;20038;-65
2022/07/12 02:50:37;;;;;;;8.30;7.50;;;;;;;14.90;68.62;99607.47;2618552;54;20073;-66
2022/07/12 02:53:07;;;;;;;7.75;6.95;;;;;;;14.87;68.43;99606.06;2619836;54;20045;-67
2022/07/12 02:55:40;;;;;;;9.23;8.00;;;;;;;14.85;68.84;99610.75;2619698;54;20026;-67
2022/07/12 02:58:11;;;;;;;8.07;6.75;;;;;;;14.81;68.81;99615.63;2618824;54;20034;-66
2022/07/12 03:00:41;;;;;;;8.10;7.30;;;;;;;14.77;68.85;99616.25;2619641;54;20038;-65
2022/07/12 03:03:12;;;;;;;8.60;7.70;;;;;;;14.77;69.07;99618.91;2618920;54;20037;-65
2022/07/12 03:05:42;;;;;;;9.52;7.80;;;;;;;14.61;69.31;99622.72;2618873;54;20026;-66
2022/07/12 03:08:13;;;;;;;7.63;6.93;;;;;;;14.65;69.01;99621.31;2618203;54;20030;-65
2022/07/12 03:10:45;;;;;;;8.07;7.30;;;;;;;14.64;69.27;99617.00;2618294;47;20026;-65
2022/07/12 03:13:15;;;;;;;8.07;7.28;;;;;;;14.62;69.63;99613.75;2619289;54;20042;-64
2022/07/12 03:15:45;;;;;;;8.57;7.70;;;;;;;14.60;69.44;99621.09;2618573;54;20030;-66
2022/07/12 03:18:16;;;;;;;8.07;7.07;;;;;;;14.58;69.27;99620.50;2619808;39;20613;-65
2022/07/12 03:20:45;;;;;;;7.95;6.63;;;;;;;14.58;69.35;99623.16;2619174;54;20566;-66
2022/07/12 03:23:15;;;;;;;6.70;6.10;;;;;;;14.61;69.80;99631.56;2619027;48;20034;-66
2022/07/12 03:25:47;;;;;;;7.50;6.80;;;;;;;14.69;69.49;99635.03;2619156;54;20018;-65
2022/07/12 03:28:17;;;;;;;7.60;6.80;;;;;;;14.55;69.61;99640.31;2619818;54;20045;-65
2022/07/12 03:30:47;;;;;;;7.53;6.82;;;;;;;14.58;69.43;99644.44;2619167;54;20038;-65
2022/07/12 03:33:16;;;;;;;9.15;6.88;;;;;;;14.62;69.31;99648.34;2618705;54;20026;-66
2022/07/12 03:35:46;;;;;;;10.65;6.78;;;;;;;14.63;69.57;99646.50;2619250;54;20022;-65
2022/07/12 03:38:15;;;;;;;7.47;6.70;;;;;;;14.71;69.37;99647.16;2620297;54;20556;-65
2022/07/12 03:40:48;;;;;;;8.55;7.63;;;;;;;14.73;68.66;99646.94;2618447;39;20142;-66
2022/07/12 03:43:17;;;;;;;7.63;6.90;;;;;;;14.71;69.09;99655.13;2618850;47;20042;-66
2022/07/12 03:45:47;;;;;;;7.82;6.65;;;;;;;14.68;69.14;99652.84;2618518;54;20534;-66
2022/07/12 03:48:17;;;;;;;9.70;7.32;;;;;;;14.77;68.64;99649.00;2619297;54;20558;-66
2022/07/12 03:50:47;;;;;;;9.00;7.45;;;;;;;14.76;68.72;99641.22;2618283;47;20034;-65
2022/07/12 03:53:17;;;;;;;8.00;7.20;;;;;;;14.67;68.97;99645.91;2618789;54;20034;-65
2022/07/12 03:57:13;;;;;;;8.10;7.05;;;;;;;14.70;69.18;99644.69;2619714;54;20042;-66
2022/07/12 03:58:59;;;;;;;9.68;7.70;;;;;;;14.65;68.53;99649.78;2618677;54;20015;-64
2022/07/12 04:01:29;;;;;;;8.57;7.78;;;;;;;14.53;68.71;99654.81;2592359;39;20343;-66
2022/07/12 04:03:59;;;;;;;8.70;7.63;;;;;;;14.50;69.30;99655.25;2620113;54;20031;-66
2022/07/12 04:06:29;;;;;;;8.90;7.30;;;;;;;14.44;68.95;99658.66;2620746;54;20038;-66
2022/07/12 10:16:04;;;;;;;1.13;1.00;;;;;;;23.86;42.92;99705.22;2617922;39;20512;-72
2022/07/12 10:18:33;;;;;;;1.27;0.98;;;;;;;23.98;42.41;99695.84;2617770;51;20034;-74
2022/07/12 10:21:03;;;;;;;2.75;0.90;;;;;;;24.07;41.87;99698.06;2618282;54;20026;-71
2022/07/12 10:23:37;;;;;;;1.92;0.80;;;;;;;23.82;42.52;99693.28;2618535;46;20030;-71
2022/07/12 10:26:27;;;;;;;1.67;0.75;;;;;;;23.95;41.99;99688.25;2619566;54;20022;-71
2022/07/12 10:28:58;;;;;;;2.13;1.10;;;;;;;24.15;41.42;99689.47;2619000;54;20053;-71
2022/07/12 10:31:33;;;;;;;3.03;0.90;;;;;;;24.52;40.40;99699.47;2620015;39;20487;-71
2022/07/12 10:34:11;;;;;;;1.67;1.05;;;;;;;24.53;40.56;99701.88;2619346;54;20530;-70
2022/07/12 10:37:11;;;;;;;1.13;0.93;;;;;;;24.54;40.65;99703.53;2619531;54;20026;-72
2022/07/12 10:40:15;;;;;;;1.10;1.00;;;;;;;24.32;41.43;99703.63;2619133;54;20026;-72
2022/07/12 10:43:21;;;;;;;0.90;0.90;;;;;;;24.41;41.19;99699.41;2618566;54;20119;-71
2022/07/12 10:45:51;;;;;;;1.20;0.82;;;;;;;24.50;40.93;99696.22;2619154;54;20034;-72
2022/07/12 10:48:25;;;;;;;0.95;0.85;;;;;;;24.47;40.89;99692.16;2619066;54;20034;-72
2022/07/12 10:50:57;;;;;;;1.00;0.77;;;;;;;24.51;41.00;99698.66;2618189;54;20049;-71
2022/07/12 10:53:33;;;;;;;1.48;0.88;;;;;;;24.65;39.99;99696.28;2618148;54;20034;-71
2022/07/12 10:56:11;;;;;;;0.73;0.63;;;;;;;24.89;39.07;99702.06;2618282;54;20038;-72
2022/07/12 10:58:46;;;;;;;1.08;0.88;;;;;;;24.85;38.61;99699.06;2617738;54;20026;-71
2022/07/12 11:01:18;;;;;;;2.45;1.08;;;;;;;25.01;38.63;99701.84;2618235;54;20034;-72
2022/07/12 11:03:50;;;;;;;2.33;0.90;;;;;;;25.15;38.49;99698.41;2618176;54;20014;-71
2022/07/12 11:06:22;;;;;;;1.25;0.90;;;;;;;25.23;38.08;99701.66;2617543;54;20552;-72
2022/07/12 11:08:55;;;;;;;0.80;0.80;;;;;;;25.01;38.27;99699.94;2618217;54;20026;-70
2022/07/12 11:11:27;;;;;;;4.20;0.80;;;;;;;24.93;38.80;99695.03;2618143;54;20030;-71
2022/07/12 11:14:00;;;;;;;1.08;1.02;;;;;;;25.17;38.52;99701.63;2618167;54;20030;-70
2022/07/12 11:16:30;;;;;;;;;;;;;;;25.30;38.89;99689.50;2618200;54;20039;-71
2022/07/12 11:19:00;;;;;;;1.00;0.90;;;;;;;25.43;38.19;99698.97;2617774;54;19938;-71
2022/07/12 11:21:30;;;;;;;1.13;0.90;;;;;;;25.38;37.95;99688.97;2618038;54;20031;-71
2022/07/12 11:24:00;;;;;;;1.40;0.80;;;;;;;25.43;37.65;99698.97;2617382;47;20063;-71
2022/07/12 11:26:30;;;;;;;1.40;1.10;;;;;;;25.60;37.30;99693.34;2617925;54;20042;-72
2022/07/12 11:29:02;;;;;;;1.58;0.88;;;;;;;25.63;37.65;99684.66;2619095;54;20059;-71
2022/07/12 11:31:31;;;;;;;1.85;0.80;;;;;;;25.67;36.96;99691.16;2619829;54;20034;-72
2022/07/12 11:34:01;;;;;;;0.80;0.80;;;;;;;25.73;36.42;99681.97;2619243;47;20030;-70
2022/07/12 11:36:33;;;;;;;1.40;0.80;;;;;;;25.77;36.85;99680.38;2619620;47;20026;-70
2022/07/12 11:39:03;;;;;;;1.45;0.70;;;;;;;25.50;36.73;99691.41;2619729;54;20526;-72
2022/07/12 11:41:32;;;;;;;4.15;1.00;;;;;;;25.36;36.91;99674.09;2620734;39;20445;-72
2022/07/12 11:44:05;;;;;;;0.63;0.60;;;;;;;25.62;36.04;99673.00;2621108;54;20029;-71
2022/07/12 11:46:35;;;;;;;5.13;0.65;;;;;;;25.54;36.40;99676.25;2622057;54;20581;-71
2022/07/12 11:49:04;;;;;;;1.50;0.80;;;;;;;25.64;36.68;99673.56;2621960;54;20045;-71
2022/07/12 11:51:35;;;;;;;2.67;0.77;;;;;;;25.73;35.82;99662.19;2622388;54;20163;-71
2022/07/12 11:54:05;;;;;;;1.23;1.00;;;;;;;25.78;36.25;99662.22;2620573;54;20033;-73
2022/07/12 11:56:35;;;;;;;1.60;0.60;;;;;;;25.99;35.65;99655.69;2618751;54;20114;-72
2022/07/12 11:59:07;;;;;;;2.78;0.80;;;;;;;26.03;36.17;99659.47;2618222;54;20090;-72
2022/07/12 12:01:36;;;;;;;0.73;0.73;;;;;;;26.23;34.98;99658.63;2618179;54;20039;-72
2022/07/12 12:04:06;;;;;;;1.33;0.82;;;;;;;26.24;35.13;99648.59;2617571;47;20019;-71
2022/07/12 12:06:36;;;;;;;1.98;0.70;;;;;;;26.30;34.91;99650.22;2618604;39;20406;-71
2022/07/12 12:09:08;;;;;;;0.95;0.85;;;;;;;26.26;34.99;99657.28;2618538;54;20599;-71
2022/07/12 12:11:38;;;;;;;1.38;1.00;;;;;;;26.33;34.90;99658.63;2618414;54;20023;-71
2022/07/12 12:14:10;;;;;;;2.08;0.70;;;;;;;26.29;33.72;99660.25;2618576;54;20026;-71
2022/07/12 12:16:40;;;;;;;3.67;1.33;;;;;;;26.25;34.19;99656.47;2618471;54;20039;-71
2022/07/12 12:19:13;;;;;;;0.80;0.80;;;;;;;26.30;34.75;99659.16;2618134;54;20031;-71
2022/07/12 12:21:43;;;;;;;1.35;0.70;;;;;;;26.31;35.01;99647.22;2618412;54;20596;-71
2022/07/12 12:24:13;;;;;;;1.65;0.95;;;;;;;26.39;33.94;99654.78;2619800;54;20030;-70
2022/07/12 12:26:43;;;;;;;2.05;0.90;;;;;;;26.47;34.16;99639.88;2619555;54;20046;-71
2022/07/12 12:29:15;;;;;;;0.60;0.60;;;;;;;26.45;34.35;99635.81;2619630;54;20022;-71
2022/07/12 12:31:59;;;;;;;1.13;0.83;;;;;;;26.74;33.75;99635.97;2620306;54;20050;-72
2022/07/12 12:34:29;;;;;;;0.57;0.57;;;;;;;26.76;32.46;99634.59;2620053;54;20563;-73
2022/07/12 12:36:58;;;;;;;0.55;0.52;;;;;;;26.65;32.39;99635.72;2619141;54;20032;-72
2022/07/12 12:39:32;;;;;;;0.80;0.70;;;;;;;26.87;31.85;99640.78;2618929;54;20035;-72
2022/07/12 12:42:01;;;;;;;0.60;0.60;;;;;;;27.04;32.06;99630.38;2619307;39;20441;-72
2022/07/12 12:44:36;;;;;;;0.82;0.70;;;;;;;27.21;31.70;99624.59;2618614;39;20445;-72
2022/07/12 12:49:53;;;;;;;0.70;0.50;;;;;;;27.41;31.15;99626.34;2618827;54;20018;-72
2022/07/12 12:52:26;;;;;;;0.80;0.60;;;;;;;27.11;31.25;99620.06;2620248;39;20447;-72
2022/07/12 12:54:57;;;;;;;3.80;0.77;;;;;;;27.18;30.58;99619.72;2619603;47;20034;-71
2022/07/12 12:57:28;;;;;;;1.90;1.00;;;;;;;27.40;30.42;99614.69;2620628;54;20035;-71
2022/07/12 13:00:00;;;;;;;0.88;0.70;;;;;;;27.42;30.59;99614.38;2622194;54;20031;-71
2022/07/12 13:02:30;;;;;;;3.20;0.70;;;;;;;27.58;29.96;99613.16;2624089;54;20098;-72
2022/07/12 13:05:01;;;;;;;2.58;1.00;;;;;;;27.63;29.83;99623.16;2623212;54;20021;-73
2022/07/12 13:07:31;;;;;;;8.45;0.75;;;;;;;27.56;29.86;99620.81;2624096;54;20042;-72
2022/07/12 13:10:00;;;;;;;0.55;0.55;;;;;;;27.55;29.55;99619.16;2623304;54;20027;-73
2022/07/12 13:12:31;;;;;;;1.60;0.55;;;;;;;27.41;29.93;99620.91;2623641;54;20042;-72
2022/07/12 13:15:03;;;;;;;1.13;0.65;;;;;;;27.23;30.04;99610.72;2622863;54;20612;-72
2022/07/12 13:17:33;;;;;;;1.88;0.50;;;;;;;27.27;30.56;99614.50;2625635;39;20438;-73
2022/07/12 13:20:03;;;;;;;2.53;0.68;;;;;;;27.30;30.61;99609.31;2624147;54;20040;-73
2022/07/12 13:22:32;;;;;;;2.10;0.70;;;;;;;27.49;29.51;99605.94;2624061;54;20613;-73
2022/07/12 13:25:02;;;;;;;3.80;0.98;;;;;;;27.64;28.57;99608.50;2623858;54;20086;-72
2022/07/12 13:27:32;;;;;;;2.25;0.70;;;;;;;27.80;28.76;99603.75;2620383;54;20038;-71
2022/07/12 13:30:06;;;;;;;0.60;0.60;;;;;;;27.96;28.77;99604.41;2617937;54;20056;-72
2022/07/12 13:32:36;;;;;;;1.70;0.70;;;;;;;27.85;29.41;99601.81;2618042;54;20535;-72
2022/07/12 13:35:07;;;;;;;1.25;0.70;;;;;;;27.81;29.34;99608.13;2619090;39;20447;-72
2022/07/12 13:37:37;;;;;;;1.10;0.50;;;;;;;27.80;28.65;99601.88;2617787;47;20033;-73
2022/07/12 13:40:17;;;;;;;2.55;0.70;;;;;;;27.67;29.33;99608.72;2618489;31;20554;-73
2022/07/12 13:42:49;;;;;;;1.10;0.60;;;;;;;27.79;29.06;99602.94;2619056;54;20038;-72
2022/07/12 13:45:23;;;;;;;2.03;1.10;;;;;;;28.02;28.08;99590.50;2622543;54;20049;-73
2022/07/12 13:47:55;;;;;;;1.45;0.90;;;;;;;28.27;27.53;99594.00;2623730;54;20098;-70
2022/07/12 13:50:25;;;;;;;0.60;0.60;;;;;;;28.29;27.13;99592.63;2623193;54;20038;-74
2022/07/12 13:53:01;;;;;;;0.98;0.70;;;;;;;28.22;27.55;99594.88;2622324;47;20130;-73
2022/07/12 13:55:31;;;;;;;0.75;0.70;;;;;;;28.23;27.13;99596.50;2622741;54;20031;-72
2022/07/12 13:58:01;;;;;;;0.50;0.50;;;;;;;28.26;26.74;99593.22;2619711;54;20037;-73
2022/07/12 14:00:33;;;;;;;0.45;0.45;;;;;;;28.11;26.81;99588.75;2619767;54;20031;-73
2022/07/12 14:03:02;;;;;;;0.55;0.55;;;;;;;28.37;26.37;99594.75;2619695;54;20533;-73
2022/07/12 14:05:33;;;;;;;0.50;0.50;;;;;;;28.38;26.61;99582.75;2619584;54;20029;-72
2022/07/12 14:08:02;;;;;;;0.75;0.50;;;;;;;28.31;26.71;99581.47;2619076;47;20030;-72
2022/07/12 14:10:33;;;;;;;2.17;0.82;;;;;;;28.57;27.01;99579.25;2620461;39;20470;-71
2022/07/12 14:13:03;;;;;;;0.70;0.70;;;;;;;28.72;26.58;99584.47;2620449;39;20426;-71
2022/07/12 14:15:40;;;;;;;2.08;0.70;;;;;;;28.82;26.48;99584.34;2619449;47;20605;-71
2022/07/12 14:18:09;;;;;;;0.70;0.70;;;;;;;28.71;26.77;99588.31;2619824;54;20018;-72
2022/07/12 14:20:39;;;;;;;2.75;0.70;;;;;;;28.69;26.46;99585.06;2619253;54;20078;-72
2022/07/12 14:23:11;;;;;;;3.47;0.60;;;;;;;28.74;25.61;99576.00;2621913;54;20042;-72
2022/07/12 14:25:41;;;;;;;0.65;0.60;;;;;;;28.79;25.79;99582.22;2622375;46;20042;-72
2022/07/12 14:28:10;;;;;;;6.57;1.52;;;;;;;28.84;26.38;99581.31;2626019;54;20557;-72
2022/07/12 14:30:43;;;;;;;1.40;0.60;;;;;;;28.84;25.88;99576.69;2625117;54;20037;-73
2022/07/12 14:33:13;;;;;;;0.55;0.50;;;;;;;28.57;25.09;99566.44;2625796;54;20034;-72
2022/07/12 14:35:43;;;;;;;0.68;0.63;;;;;;;28.64;25.29;99572.34;2626563;54;20033;-73
2022/07/12 14:38:12;;;;;;;1.27;0.60;;;;;;;28.77;25.09;99565.34;2626625;54;20038;-72
2022/07/12 14:40:42;;;;;;;0.50;0.43;;;;;;;28.99;25.47;99572.16;2624953;54;20026;-73
2022/07/12 14:43:12;;;;;;;0.50;0.50;;;;;;;29.11;25.35;99564.34;2618777;54;20061;-73
2022/07/12 14:45:44;;;;;;;0.60;0.60;;;;;;;29.21;25.45;99560.66;2618524;54;20038;-73
2022/07/12 14:48:14;;;;;;;0.70;0.70;;;;;;;29.30;25.12;99562.38;2618548;54;20042;-73
2022/07/12 14:50:44;;;;;;;2.08;0.75;;;;;;;29.21;25.08;99564.19;2618280;54;20038;-73
2022/07/12 14:53:18;;;;;;;1.35;0.60;;;;;;;29.33;24.21;99559.06;2618550;54;20034;-73
2022/07/12 14:55:48;;;;;;;0.60;0.60;;;;;;;29.32;24.73;99562.91;2618086;47;20029;-73
2022/07/12 14:58:18;;;;;;;0.82;0.60;;;;;;;29.33;24.35;99558.25;2621839;47;20034;-72
2022/07/12 15:00:50;;;;;;;3.40;0.57;;;;;;;29.35;23.96;99556.88;2621647;54;20042;-72
2022/07/12 15:03:19;;;;;;;0.57;0.57;;;;;;;29.51;23.99;99562.03;2619943;39;20451;-71
2022/07/12 15:05:49;;;;;;;0.80;0.60;;;;;;;29.50;24.33;99555.78;2618167;54;20034;-72
2022/07/12 15:08:18;;;;;;;4.70;1.13;;;;;;;29.43;23.62;99558.06;2618076;47;20030;-72
2022/07/12 15:10:48;;;;;;;1.45;0.90;;;;;;;29.40;23.66;99553.25;2619273;54;20031;-71
2022/07/12 15:13:18;;;;;;;1.80;0.60;;;;;;;29.48;23.58;99549.84;2618902;54;20038;-70
2022/07/12 15:15:50;;;;;;;0.70;0.70;;;;;;;29.43;23.96;99551.81;2618427;54;20034;-71
2022/07/12 15:18:20;;;;;;;1.60;0.60;;;;;;;29.50;24.00;99544.09;2618215;54;20045;-73
2022/07/12 15:20:49;;;;;;;3.40;0.77;;;;;;;29.68;24.01;99542.41;2617797;47;20027;-72
2022/07/12 15:23:19;;;;;;;2.17;0.80;;;;;;;29.66;24.07;99536.47;2618558;54;20074;-73
2022/07/12 15:25:49;;;;;;;2.60;0.60;;;;;;;29.58;25.19;99541.50;2618793;54;20026;-73
2022/07/12 15:28:22;;;;;;;1.98;0.80;;;;;;;29.56;24.75;99546.47;2619537;39;20459;-73
2022/07/12 15:30:55;;;;;;;0.60;0.60;;;;;;;29.72;24.33;99529.81;2619138;54;20027;-72
2022/07/12 15:33:25;;;;;;;0.55;0.55;;;;;;;29.78;24.61;99537.59;2618535;47;20033;-73
2022/07/12 15:35:55;;;;;;;3.35;1.02;;;;;;;29.87;23.97;99534.97;2618716;54;20042;-73
2022/07/12 15:38:24;;;;;;;0.65;0.65;;;;;;;30.04;23.79;99526.97;2618759;54;20085;-72
2022/07/12 15:40:54;;;;;;;1.30;0.50;;;;;;;30.11;23.30;99521.94;2618507;54;20027;-73
2022/07/12 15:43:24;;;;;;;0.73;0.70;;;;;;;30.09;23.50;99523.38;2618220;47;20023;-72
2022/07/12 15:45:56;;;;;;;2.03;0.65;;;;;;;30.18;22.58;99516.13;2618437;54;20026;-72
2022/07/12 15:48:26;;;;;;;1.10;0.60;;;;;;;30.14;22.65;99517.00;2618572;54;20034;-73
2022/07/12 15:50:56;;;;;;;0.70;0.70;;;;;;;30.15;22.34;99518.59;2618323;39;20414;-73
2022/07/12 15:53:28;;;;;;;2.42;0.80;;;;;;;30.01;22.63;99515.91;2617613;47;20038;-72
2022/07/12 15:56:03;;;;;;;2.88;2.60;;;;;;;29.74;22.46;99506.59;2618227;54;20031;-73
2022/07/12 15:58:34;;;;;;;6.30;4.50;;;;;;;29.65;23.21;99513.88;2618417;54;20070;-72
2022/07/12 16:01:07;;;;;;;4.07;2.28;;;;;;;29.63;23.33;99510.63;2616601;47;20065;-73
2022/07/12 16:03:37;;;;;;;1.80;0.98;;;;;;;29.59;23.35;99512.34;2618307;54;20038;-71
2022/07/12 16:06:07;;;;;;;1.27;1.17;;;;;;;29.66;23.19;99517.41;2617891;54;20034;-71
2022/07/12 16:08:37;;;;;;;2.45;0.75;;;;;;;29.69;23.12;99514.09;2618129;54;20568;-72
2022/07/12 16:11:06;;;;;;;1.58;0.70;;;;;;;29.72;23.54;99518.91;2618317;54;20035;-73
2022/07/12 16:13:36;;;;;;;0.77;0.60;;;;;;;29.79;23.38;99517.41;2618609;54;20037;-73
2022/07/12 16:16:09;;;;;;;3.17;0.70;;;;;;;30.01;23.30;99533.06;2616768;54;20030;-70
2022/07/12 16:18:39;;;;;;;0.90;0.80;;;;;;;30.15;23.42;99519.44;2617950;39;20449;-70
2022/07/12 16:21:08;;;;;;;0.60;0.60;;;;;;;30.16;23.00;99518.31;2616790;47;20045;-67
2022/07/12 16:23:38;;;;;;;0.68;0.60;;;;;;;30.25;23.30;99518.41;2618392;54;20558;-67
2022/07/12 16:26:07;;;;;;;0.70;0.70;;;;;;;30.24;23.33;99514.06;2618481;54;20554;-68
2022/07/12 16:28:37;;;;;;;1.25;1.15;;;;;;;30.27;23.22;99508.00;2618345;39;20419;-69
2022/07/12 16:31:09;;;;;;;1.00;0.70;;;;;;;30.27;23.64;99499.84;2618288;54;20023;-69
2022/07/12 16:33:39;;;;;;;0.82;0.70;;;;;;;30.19;23.42;99497.81;2618506;54;20023;-68
2022/07/12 16:36:09;;;;;;;1.88;0.90;;;;;;;30.27;23.56;99503.38;2621565;54;20059;-69
2022/07/12 16:38:39;;;;;;;2.38;1.10;;;;;;;30.59;23.43;99501.56;2621007;54;20030;-71
2022/07/12 16:41:08;;;;;;;1.25;0.60;;;;;;;30.73;23.32;99502.34;2621193;39;20454;-69
2022/07/12 16:43:39;;;;;;;0.90;0.88;;;;;;;30.67;23.48;99506.28;2617878;54;20034;-70
2022/07/12 16:46:11;;;;;;;3.17;0.80;;;;;;;30.80;23.56;99505.47;2617470;54;20027;-70
2022/07/12 16:48:41;;;;;;;2.15;1.20;;;;;;;30.89;23.17;99504.72;2616748;54;20074;-71
2022/07/12 16:51:26;;;;;;;0.70;0.70;;;;;;;30.78;22.81;99502.25;2617214;54;20034;-70
2022/07/12 16:53:58;;;;;;;1.60;0.52;;;;;;;30.50;23.39;99496.03;2617453;54;20037;-69
2022/07/12 16:56:30;;;;;;;1.08;0.70;;;;;;;30.56;22.88;99494.00;2617443;54;20037;-72
2022/07/12 16:59:00;;;;;;;0.90;0.90;;;;;;;30.53;23.20;99495.41;2617506;54;20552;-72
2022/07/12 17:01:32;;;;;;;2.03;1.85;;;;;;;30.51;23.20;99486.75;2617351;54;20031;-67
2022/07/12 17:04:02;;;;;;;3.35;3.08;;;;;;;30.48;23.11;99483.81;2618451;54;20019;-69
2022/07/12 17:06:33;;;;;;;3.70;1.10;;;;;;;30.41;22.85;99484.22;2619442;31;20455;-66
2022/07/12 17:09:03;;;;;;;1.13;1.08;;;;;;;30.55;22.97;99486.94;2618095;54;20046;-67
2022/07/12 17:11:32;;;;;;;3.83;0.70;;;;;;;30.92;22.21;99488.53;2618636;39;20180;-67
2022/07/12 17:14:02;;;;;;;3.60;0.90;;;;;;;31.15;21.74;99494.78;2617980;54;20060;-66
2022/07/12 17:16:34;;;;;;;1.30;0.80;;;;;;;31.07;21.71;99485.41;2617590;47;20026;-65
2022/07/12 17:19:05;;;;;;;2.25;1.20;;;;;;;31.03;22.04;99483.63;2619721;39;20456;-67
2022/07/12 17:21:36;;;;;;;5.38;0.93;;;;;;;30.92;22.01;99490.44;2619402;54;20034;-66
2022/07/12 17:24:06;;;;;;;1.98;1.30;;;;;;;30.67;22.55;99489.91;2619271;54;20042;-67
2022/07/12 17:26:44;;;;;;;2.20;0.80;;;;;;;30.32;22.73;99492.34;2619430;54;20038;-67
2022/07/12 17:29:15;;;;;;;0.80;0.60;;;;;;;30.05;22.99;99497.81;2619267;54;20522;-67
2022/07/12 17:31:47;;;;;;;2.88;1.30;;;;;;;30.14;23.23;99497.91;2619374;54;20038;-68
2022/07/12 17:34:16;;;;;;;1.17;1.05;;;;;;;30.18;23.09;99499.75;2619105;54;20025;-69
2022/07/12 17:36:47;;;;;;;8.38;1.13;;;;;;;30.05;23.47;99493.19;2619040;54;20549;-67
2022/07/12 17:39:23;;;;;;;5.93;3.30;;;;;;;29.95;23.30;99503.47;2618029;46;20050;-67
2022/07/12 17:41:53;;;;;;;1.38;1.00;;;;;;;29.98;23.56;99498.22;2618863;54;20034;-66
2022/07/12 17:44:24;;;;;;;2.45;0.70;;;;;;;29.98;23.69;99500.94;2618403;54;20027;-69
2022/07/12 17:46:57;;;;;;;1.00;0.90;;;;;;;30.20;23.98;99496.72;2619434;54;20034;-67
2022/07/12 17:49:27;;;;;;;0.65;0.65;;;;;;;30.87;22.74;99488.66;2618453;54;20023;-67
2022/07/12 17:51:57;;;;;;;4.68;4.03;;;;;;;31.40;22.48;99487.09;2618901;54;20027;-67
2022/07/12 17:54:28;;;;;;;8.90;7.32;;;;;;;31.83;21.93;99492.69;2617793;54;20037;-70
2022/07/12 17:56:58;;;;;;;5.68;2.33;;;;;;;32.37;21.21;99495.25;2617833;54;20538;-66
2022/07/12 17:59:27;;;;;;;2.55;1.55;;;;;;;32.49;21.27;99500.91;2618061;54;20034;-69
2022/07/12 18:01:59;;;;;;;3.05;0.98;;;;;;;32.45;21.06;99497.22;2618815;54;20558;-71
2022/07/12 18:04:32;;;;;;;2.70;0.88;;;;;;;32.39;21.11;99499.31;2618216;54;20026;-70
2022/07/12 18:07:02;;;;;;;0.90;0.90;;;;;;;32.52;20.92;99501.09;2618507;54;20030;-70